Time;durP1;ratioP1;P1;durP2;ratioP2;P2;SDS_P1;SDS_P2;PMS_P1;PMS_P2;Temp;Humidity;BMP_temperature;BMP_pressure;BME280_temperature;BME280_humidity;BME280_pressure;Samples;Min_cycle;Max_cycle;Signal;HPM_P1;HPM_P2
2023/12/08 00:00:45;;;;;;;;;11.67;11.67;;;;;7.34;100.00;100413.53;5044000;28;49231;-80
2023/12/08 00:03:14;;;;;;;;;12.67;12.00;;;;;7.30;100.00;100400.56;5042929;28;45313;-81
2023/12/08 00:05:39;;;;;;;;;16.00;13.00;;;;;7.32;100.00;100385.59;5034668;28;45571;-80
2023/12/08 00:08:04;;;;;;;;;13.67;10.67;;;;;7.27;100.00;100395.41;5017695;28;45373;-81
2023/12/08 00:10:29;;;;;;;;;12.00;10.00;;;;;7.38;100.00;100416.03;5030452;28;45340;-81
2023/12/08 00:12:55;;;;;;;;;9.00;9.00;;;;;7.36;100.00;100405.59;5045022;28;45347;-80
2023/12/08 00:15:20;;;;;;;;;13.00;9.00;;;;;7.38;100.00;100413.41;5045379;28;45700;-81
2023/12/08 00:17:45;;;;;;;;;9.00;9.00;;;;;7.40;100.00;100411.56;5025178;28;45356;-80
2023/12/08 00:20:11;;;;;;;;;10.33;10.33;;;;;7.41;100.00;100416.78;5016452;28;45375;-80
2023/12/08 00:22:36;;;;;;;;;11.00;9.33;;;;;7.42;100.00;100426.38;5030030;28;45342;-81
2023/12/08 00:25:02;;;;;;;;;10.33;9.00;;;;;7.44;100.00;100419.28;5025408;28;46240;-81
2023/12/08 00:27:27;;;;;;;;;11.50;10.25;;;;;7.47;100.00;100427.03;5035593;28;45404;-81
2023/12/08 00:29:53;;;;;;;;;12.00;9.00;;;;;7.46;100.00;100420.06;5026491;28;45497;-80
2023/12/08 00:32:18;;;;;;;;;13.00;12.33;;;;;7.45;100.00;100428.88;5032133;28;46240;-81
2023/12/08 00:34:46;;;;;;;;;10.67;9.67;;;;;7.45;100.00;100428.03;5041799;28;45280;-81
2023/12/08 00:37:11;;;;;;;;;7.00;4.00;;;;;7.54;100.00;100439.03;5042488;28;45636;-80
2023/12/08 00:39:37;;;;;;;;;7.00;7.00;;;;;7.56;100.00;100424.03;5019433;28;45545;-80
2023/12/08 00:42:02;;;;;;;;;10.33;8.00;;;;;7.42;100.00;100404.47;5023777;28;55253;-81
2023/12/08 00:44:28;;;;;;;;;9.00;9.00;;;;;7.43;100.00;100406.19;5024644;28;46499;-81
2023/12/08 00:46:53;;;;;;;;;9.00;7.33;;;;;7.59;100.00;100434.44;5021506;28;45394;-81
2023/12/08 00:49:18;;;;;;;;;10.33;8.67;;;;;7.55;100.00;100426.75;5040382;28;45618;-80
2023/12/08 00:51:44;;;;;;;;;10.00;10.00;;;;;7.53;100.00;100418.03;5032351;28;45342;-80
2023/12/08 00:54:09;;;;;;;;;10.33;8.33;;;;;7.49;100.00;100412.06;5052970;28;46193;-79
2023/12/08 00:56:35;;;;;;;;;7.33;7.00;;;;;7.52;100.00;100398.78;5053272;28;45126;-79
2023/12/08 00:59:00;;;;;;;;;8.00;8.00;;;;;7.58;100.00;100416.09;5053334;28;45581;-78
2023/12/08 01:01:25;;;;;;;;;11.00;7.33;;;;;7.49;100.00;100404.19;5062918;28;44745;-79
2023/12/08 01:03:51;;;;;;;;;8.33;8.33;;;;;7.45;100.00;100385.94;5062872;28;44980;-79
2023/12/08 01:06:16;;;;;;;;;9.00;8.00;;;;;7.61;100.00;100419.44;5063265;28;44786;-79
2023/12/08 01:08:41;;;;;;;;;6.00;6.00;;;;;7.63;100.00;100416.75;5061141;28;45192;-79
2023/12/08 01:11:11;;;;;;;;;9.00;9.00;;;;;7.68;100.00;100420.06;5031480;28;52963;-79
2023/12/08 01:13:36;;;;;;;;;11.00;9.00;;;;;7.55;100.00;100403.91;5049970;28;45153;-78
2023/12/08 01:16:12;;;;;;;;;7.00;7.00;;;;;7.32;100.00;100380.31;5048125;28;45521;-79
2023/12/08 01:18:38;;;;;;;;;9.00;7.67;;;;;7.72;100.00;100432.19;5047171;28;44605;-79
2023/12/08 01:21:04;;;;;;;;;10.00;10.00;;;;;7.69;100.00;100438.41;5060473;28;44713;-79
2023/12/08 01:23:29;;;;;;;;;6.33;6.33;;;;;7.21;100.00;100379.88;5045177;28;45558;-79
2023/12/08 01:25:55;;;;;;;;;10.00;7.67;;;;;7.14;100.00;100374.00;5044528;28;44727;-79
2023/12/08 01:28:20;;;;;;;;;6.33;5.33;;;;;7.20;100.00;100375.53;5044818;28;44714;-79
2023/12/08 01:30:46;;;;;;;;;9.00;8.00;;;;;7.30;100.00;100393.53;5038584;28;44738;-79
2023/12/08 01:33:11;;;;;;;;;6.00;6.00;;;;;7.78;100.00;100450.34;5048047;28;45538;-78
2023/12/08 01:35:40;;;;;;;;;8.00;6.67;;;;;7.23;100.00;100370.19;5044635;28;44754;-79
2023/12/08 01:38:08;;;;;;;;;8.00;6.00;;;;;7.81;100.00;100450.22;5046621;28;44687;-79
2023/12/08 01:40:34;;;;;;;;;9.00;7.33;;;;;7.24;100.00;100377.13;5064395;28;44807;-79
2023/12/08 01:43:02;;;;;;;;;8.00;8.00;;;;;7.83;100.00;100472.91;5063799;28;45291;-79
2023/12/08 01:45:27;;;;;;;;;6.67;6.33;;;;;7.84;100.00;100477.28;5048400;28;44748;-78
2023/12/08 01:47:53;;;;;;;;;5.33;5.33;;;;;7.44;100.00;100385.06;5041331;28;45379;-80
2023/12/08 01:50:19;;;;;;;;;8.67;8.67;;;;;7.73;100.00;100434.72;5054199;28;45333;-81
2023/12/08 01:52:44;;;;;;;;;8.00;8.00;;;;;7.76;100.00;100433.75;5051459;28;46198;-81
2023/12/08 01:55:11;;;;;;;;;12.33;8.67;;;;;7.87;100.00;100457.84;5036708;28;45210;-81
2023/12/08 01:57:36;;;;;;;;;6.00;6.00;;;;;7.85;100.00;100452.63;5030737;28;45394;-81
2023/12/08 02:00:03;;;;;;;;;7.00;7.00;;;;;7.80;100.00;100454.63;5035961;28;45328;-81
2023/12/08 02:02:29;;;;;;;;;8.00;8.00;;;;;7.76;100.00;100447.75;5053804;28;47046;-80
2023/12/08 02:04:57;;;;;;;;;8.33;8.33;;;;;7.84;100.00;100469.38;5046835;28;45324;-81
2023/12/08 02:07:24;;;;;;;;;9.67;9.00;;;;;7.80;100.00;100473.06;5022761;28;45444;-80
2023/12/08 02:09:50;;;;;;;;;11.33;7.67;;;;;7.83;100.00;100459.75;5037417;28;45538;-81
2023/12/08 02:12:15;;;;;;;;;9.00;8.00;;;;;7.76;100.00;100449.53;5039387;28;45321;-80
2023/12/08 02:14:41;;;;;;;;;9.67;8.67;;;;;7.85;100.00;100463.16;5041279;28;44605;-80
2023/12/08 02:17:18;;;;;;;;;9.00;6.00;;;;;7.88;100.00;100474.50;5056402;28;45245;-80
2023/12/08 02:19:44;;;;;;;;;14.67;7.33;;;;;7.98;100.00;100481.13;5061058;28;45447;-81
2023/12/08 02:22:09;;;;;;;;;8.00;8.00;;;;;7.91;100.00;100482.28;5060068;28;45312;-81
2023/12/08 02:24:34;;;;;;;;;11.33;10.00;;;;;7.89;100.00;100471.81;5049116;28;55620;-80
2023/12/08 02:27:00;;;;;;;;;8.33;7.00;;;;;7.98;100.00;100494.28;5028513;28;46239;-80
2023/12/08 02:29:26;;;;;;;;;6.33;6.33;;;;;8.04;100.00;100489.63;5050097;28;45592;-80
2023/12/08 02:32:05;;;;;;;;;8.67;8.00;;;;;7.98;100.00;100479.34;5051512;28;45902;-80
2023/12/08 02:34:33;;;;;;;;;9.00;8.00;;;;;8.02;100.00;100487.94;5052967;28;44786;-80
2023/12/08 02:37:00;;;;;;;;;12.00;8.00;;;;;8.04;100.00;100483.50;5043391;28;45288;-80
2023/12/08 02:39:27;;;;;;;;;9.00;9.00;;;;;8.03;100.00;100487.91;5044698;28;45344;-80
2023/12/08 02:41:53;;;;;;;;;8.33;7.00;;;;;8.09;100.00;100489.41;5044148;28;46379;-81
2023/12/08 02:44:18;;;;;;;;;9.00;8.33;;;;;8.09;100.00;100487.63;5038436;28;45965;-81
2023/12/08 02:46:44;;;;;;;;;10.33;8.67;;;;;8.06;100.00;100481.63;5030695;28;45437;-81
2023/12/08 02:49:09;;;;;;;;;8.67;8.67;;;;;8.14;100.00;100487.44;5056959;28;44955;-80
2023/12/08 02:51:35;;;;;;;;;14.67;10.33;;;;;8.07;100.00;100470.19;5024739;28;64956;-80
2023/12/08 02:54:00;;;;;;;;;9.00;8.00;;;;;8.15;100.00;100492.63;5056015;28;45275;-81
2023/12/08 02:56:25;;;;;;;;;9.67;9.67;;;;;8.02;100.00;100470.38;5060541;28;45392;-80
2023/12/08 02:58:51;;;;;;;;;7.67;7.33;;;;;8.11;100.00;100474.41;5043967;28;44825;-80
2023/12/08 03:01:16;;;;;;;;;9.00;7.00;;;;;8.01;100.00;100463.41;5055875;28;45453;-81
2023/12/08 03:03:44;;;;;;;;;9.67;7.00;;;;;7.98;100.00;100447.75;5013050;28;45759;-80
2023/12/08 03:06:09;;;;;;;;;9.67;9.33;;;;;8.16;100.00;100478.56;5016010;28;45257;-80
2023/12/08 03:08:35;;;;;;;;;11.33;9.33;;;;;8.08;100.00;100467.47;5040909;28;57093;-81
2023/12/08 03:11:01;;;;;;;;;11.00;8.00;;;;;8.13;100.00;100472.56;5041668;28;45364;-80
2023/12/08 03:13:26;;;;;;;;;9.00;9.00;;;;;7.97;100.00;100439.91;5030797;28;68691;-81
2023/12/08 03:15:51;;;;;;;;;8.33;8.33;;;;;8.06;100.00;100442.13;5022649;28;45815;-81
2023/12/08 03:18:17;;;;;;;;;11.33;9.67;;;;;8.18;100.00;100474.06;5026820;28;45577;-81
2023/12/08 03:20:42;;;;;;;;;9.00;8.00;;;;;8.03;100.00;100450.16;5040173;28;46634;-81
2023/12/08 03:23:07;;;;;;;;;7.33;6.67;;;;;8.03;100.00;100451.03;5018170;28;45309;-81
2023/12/08 03:25:32;;;;;;;;;7.67;7.67;;;;;8.14;100.00;100476.91;5040770;28;45352;-81
2023/12/08 03:27:58;;;;;;;;;9.67;7.67;;;;;8.13;100.00;100468.16;5020077;28;45324;-80
2023/12/08 03:30:23;;;;;;;;;14.33;8.67;;;;;8.13;100.00;100472.56;5041141;28;46254;-81
2023/12/08 03:32:48;;;;;;;;;12.00;8.33;;;;;8.13;100.00;100469.94;5015350;28;48907;-81
2023/12/08 03:35:14;;;;;;;;;9.00;8.00;;;;;8.21;100.00;100495.00;5025229;28;50844;-81
2023/12/08 03:37:40;;;;;;;;;15.00;10.33;;;;;8.12;100.00;100487.50;5043840;28;45428;-80
2023/12/08 03:40:06;;;;;;;;;9.67;9.67;;;;;8.16;100.00;100496.13;5039372;28;45389;-80
2023/12/08 03:42:36;;;;;;;;;8.33;6.67;;;;;8.09;100.00;100490.28;5023523;28;45352;-82
2023/12/08 03:45:02;;;;;;;;;9.33;8.00;;;;;8.10;100.00;100489.34;5020305;28;45550;-81
2023/12/08 03:47:27;;;;;;;;;10.00;7.00;;;;;8.14;100.00;100488.31;5028935;28;44756;-81
2023/12/08 03:49:52;;;;;;;;;7.67;7.67;;;;;8.27;100.00;100507.09;5041785;28;45262;-81
2023/12/08 03:52:18;;;;;;;;;9.33;8.67;;;;;8.27;100.00;100515.00;5014157;28;45403;-82
2023/12/08 03:54:43;;;;;;;;;10.00;7.33;;;;;8.20;100.00;100508.25;5044707;28;44775;-80
2023/12/08 03:57:08;;;;;;;;;5.33;5.33;;;;;8.24;100.00;100523.88;5035822;28;52696;-82
2023/12/08 03:59:34;;;;;;;;;9.33;8.00;;;;;8.25;100.00;100522.94;5030788;28;45358;-82
2023/12/08 04:01:59;;;;;;;;;10.67;6.00;;;;;8.22;100.00;100514.31;5035758;28;49566;-82
2023/12/08 04:04:25;;;;;;;;;14.00;9.67;;;;;8.18;100.00;100510.94;5042681;28;45295;-82
2023/12/08 04:06:50;;;;;;;;;8.33;7.33;;;;;8.24;100.00;100520.38;5044114;28;44746;-81
2023/12/08 04:09:15;;;;;;;;;7.67;6.67;;;;;8.31;100.00;100538.53;5036936;22;45414;-69
2023/12/08 04:11:41;;;;;;;;;8.33;7.67;;;;;8.37;100.00;100547.97;5022177;28;45221;-70
2023/12/08 04:14:06;;;;;;;;;12.00;7.33;;;;;8.41;100.00;100552.16;4996732;28;45270;-70
2023/12/08 04:16:31;;;;;;;;;11.67;8.00;;;;;8.27;100.00;100533.44;5013632;28;45345;-71
2023/12/08 04:18:57;;;;;;;;;11.00;10.00;;;;;8.46;100.00;100573.94;5021633;28;45376;-71
2023/12/08 04:21:22;;;;;;;;;9.67;7.33;;;;;8.24;100.00;100534.44;5020585;28;45502;-71
2023/12/08 04:23:47;;;;;;;;;7.33;6.00;;;;;8.26;100.00;100532.56;5017855;28;45924;-71
2023/12/08 04:26:13;;;;;;;;;3.00;3.00;;;;;8.50;100.00;100578.16;5018932;28;45542;-71
2023/12/08 04:28:39;;;;;;;;;9.00;9.00;;;;;8.43;100.00;100560.88;5018545;28;46120;-71
2023/12/08 04:31:05;;;;;;;;;7.00;6.00;;;;;8.51;100.00;100566.66;5003908;28;45467;-71
2023/12/08 04:33:30;;;;;;;;;8.67;7.67;;;;;8.36;100.00;100541.84;5020062;28;45676;-71
2023/12/08 04:35:55;;;;;;;;;9.00;7.67;;;;;8.49;100.00;100560.63;5019041;28;45511;-71
2023/12/08 04:38:21;;;;;;;;;7.00;7.00;;;;;8.49;100.00;100563.25;5016995;28;45999;-71
2023/12/08 04:40:46;;;;;;;;;7.33;6.00;;;;;8.52;100.00;100568.38;5017396;28;45305;-71
2023/12/08 04:43:11;;;;;;;;;7.33;4.00;;;;;8.51;100.00;100569.31;5013782;28;45847;-71
2023/12/08 04:45:37;;;;;;;;;11.00;4.00;;;;;8.45;100.00;100558.16;5010168;28;45245;-71
2023/12/08 04:48:02;;;;;;;;;8.00;7.67;;;;;8.43;100.00;100560.03;5002803;28;47338;-71
2023/12/08 04:50:28;;;;;;;;;7.33;7.00;;;;;8.59;100.00;100582.16;5021601;28;45300;-71
2023/12/08 04:52:53;;;;;;;;;9.67;8.00;;;;;8.60;100.00;100582.13;5021462;28;45251;-71
2023/12/08 04:55:18;;;;;;;;;9.67;7.00;;;;;8.60;100.00;100574.22;5020928;28;45435;-71
2023/12/08 04:57:44;;;;;;;;;8.33;6.00;;;;;8.59;100.00;100582.16;5015693;28;45285;-71
2023/12/08 05:00:09;;;;;;;;;8.00;8.00;;;;;8.62;100.00;100582.91;5002856;28;45356;-71
2023/12/08 05:02:35;;;;;;;;;11.67;7.33;;;;;8.53;100.00;100577.16;5009986;28;45454;-71
2023/12/08 05:05:01;;;;;;;;;11.67;10.33;;;;;8.65;100.00;100592.44;5013078;28;45387;-71
2023/12/08 05:07:26;;;;;;;;;14.33;10.00;;;;;8.67;100.00;100596.72;5018502;28;46610;-71
2023/12/08 05:09:51;;;;;;;;;15.67;11.33;;;;;8.58;100.00;100580.44;5019441;28;45367;-71
2023/12/08 05:12:17;;;;;;;;;16.00;12.67;;;;;8.67;100.00;100604.63;5010774;28;45229;-71
2023/12/08 05:14:42;;;;;;;;;11.67;11.33;;;;;8.68;100.00;100601.09;5021269;28;47368;-71
2023/12/08 05:17:07;;;;;;;;;17.00;10.67;;;;;8.72;100.00;100609.72;5019205;28;45399;-71
2023/12/08 05:19:33;;;;;;;;;12.33;5.67;;;;;8.74;100.00;100610.50;5020806;28;45269;-71
2023/12/08 05:21:58;;;;;;;;;13.67;10.00;;;;;8.71;100.00;100606.22;5021258;28;45398;-71
2023/12/08 05:24:23;;;;;;;;;6.33;3.67;;;;;8.61;100.00;100582.94;5014706;28;45467;-71
2023/12/08 05:26:49;;;;;;;;;7.00;7.00;;;;;8.77;100.00;100608.59;4998654;28;46182;-71
2023/12/08 05:29:14;;;;;;;;;15.33;8.00;;;;;8.77;100.00;100600.69;5020490;28;45279;-71
2023/12/08 05:31:40;;;;;;;;;7.33;6.33;;;;;8.82;100.00;100613.69;5002916;28;45305;-71
2023/12/08 05:34:05;;;;;;;;;10.67;7.33;;;;;8.80;100.00;100610.25;5021109;28;45241;-71
2023/12/08 05:36:31;;;;;;;;;12.33;9.00;;;;;8.80;100.00;100619.00;5019227;28;45665;-71
2023/12/08 05:38:56;;;;;;;;;7.00;7.00;;;;;8.81;100.00;100618.09;5010963;28;45434;-71
2023/12/08 05:41:21;;;;;;;;;10.67;7.00;;;;;8.81;100.00;100623.38;5019215;28;45349;-71
2023/12/08 05:43:46;;;;;;;;;12.00;6.00;;;;;8.83;100.00;100618.88;5018926;28;45491;-71
2023/12/08 05:46:12;;;;;;;;;9.33;8.00;;;;;8.84;100.00;100628.50;5015133;28;45287;-71
2023/12/08 05:48:38;;;;;;;;;10.67;9.67;;;;;8.86;100.00;100639.88;5013771;28;45343;-71
2023/12/08 05:51:03;;;;;;;;;13.33;9.00;;;;;8.83;100.00;100637.34;5019609;28;45395;-71
2023/12/08 05:53:28;;;;;;;;;7.67;7.33;;;;;8.87;100.00;100645.97;5017330;28;45568;-71
2023/12/08 05:55:54;;;;;;;;;7.67;7.33;;;;;8.87;100.00;100623.09;5019600;28;46219;-71
2023/12/08 05:58:19;;;;;;;;;9.67;8.00;;;;;8.82;100.00;100617.19;4998590;28;45373;-71
2023/12/08 06:00:45;;;;;;;;;11.33;8.00;;;;;8.83;100.00;100626.78;5019897;28;45643;-71
2023/12/08 06:03:11;;;;;;;;;10.67;7.33;;;;;8.87;100.00;100635.41;5020737;28;45414;-71
2023/12/08 06:05:36;;;;;;;;;9.00;8.00;;;;;8.85;100.00;100629.38;5020012;28;45285;-72
2023/12/08 06:08:02;;;;;;;;;10.00;7.00;;;;;8.84;100.00;100639.06;5018689;28;45138;-71
2023/12/08 06:10:27;;;;;;;;;12.00;8.33;;;;;8.73;100.00;100635.19;5018565;28;45498;-71
2023/12/08 06:12:52;;;;;;;;;8.33;3.33;;;;;8.88;100.00;100651.19;5020102;28;45406;-71
2023/12/08 06:15:18;;;;;;;;;13.00;8.33;;;;;8.75;100.00;100646.50;5019403;28;45210;-71
2023/12/08 06:17:43;;;;;;;;;9.00;8.00;;;;;8.83;100.00;100668.16;5019261;28;45234;-71
2023/12/08 06:20:09;;;;;;;;;12.67;8.00;;;;;8.84;100.00;100667.19;5002285;28;45246;-71
2023/12/08 06:22:38;;;;;;;;;8.00;7.00;;;;;8.86;100.00;100666.25;4998972;28;45277;-71
2023/12/08 06:25:04;;;;;;;;;10.67;8.33;;;;;8.87;100.00;100672.34;5014056;28;46122;-71
2023/12/08 06:27:30;;;;;;;;;9.67;7.00;;;;;8.71;100.00;100656.31;5015114;28;45465;-71
2023/12/08 06:29:55;;;;;;;;;10.67;8.67;;;;;8.85;100.00;100690.88;5017060;28;45261;-71
2023/12/08 06:32:21;;;;;;;;;7.33;5.33;;;;;8.84;100.00;100685.66;5019540;28;45295;-71
2023/12/08 06:34:46;;;;;;;;;10.33;8.33;;;;;8.77;100.00;100690.34;5007256;28;46180;-71
2023/12/08 06:37:13;;;;;;;;;8.00;8.00;;;;;8.84;100.00;100693.56;4995108;28;45440;-71
2023/12/08 06:39:42;;;;;;;;;8.00;6.33;;;;;8.84;100.00;100688.31;5004234;28;45229;-71
2023/12/08 06:42:07;;;;;;;;;11.00;7.00;;;;;8.80;100.00;100687.56;5000029;28;45512;-71
2023/12/08 06:44:35;;;;;;;;;12.67;8.00;;;;;8.77;100.00;100689.47;5010343;28;46029;-71
2023/12/08 06:47:01;;;;;;;;;14.00;9.33;;;;;8.80;100.00;100690.19;5011293;28;45403;-71
2023/12/08 06:49:26;;;;;;;;;7.67;7.67;;;;;8.67;100.00;100667.06;5013734;28;45444;-71
2023/12/08 06:51:51;;;;;;;;;12.00;12.00;;;;;8.81;100.00;100704.25;5012346;28;45433;-71
2023/12/08 06:54:18;;;;;;;;;9.33;9.00;;;;;8.81;100.00;100709.53;5011547;28;46394;-71
2023/12/08 06:56:43;;;;;;;;;14.00;10.00;;;;;8.79;100.00;100701.69;5015179;28;45417;-71
2023/12/08 06:59:09;;;;;;;;;14.67;12.00;;;;;8.77;100.00;100707.94;5017311;28;45259;-71
2023/12/08 07:01:37;;;;;;;;;13.33;9.67;;;;;8.80;100.00;100713.94;5017502;28;45193;-71
2023/12/08 07:04:06;;;;;;;;;14.67;9.00;;;;;8.76;100.00;100717.66;5004367;28;45475;-71
2023/12/08 07:06:31;;;;;;;;;12.00;10.67;;;;;8.80;100.00;100721.84;5019584;28;45489;-71
2023/12/08 07:08:57;;;;;;;;;13.67;10.00;;;;;8.82;100.00;100730.56;5016117;28;45474;-71
2023/12/08 07:11:22;;;;;;;;;12.00;7.67;;;;;8.82;100.00;100738.47;4994426;28;45523;-71
2023/12/08 07:13:48;;;;;;;;;14.67;9.00;;;;;8.77;100.00;100729.03;4998371;28;46856;-71
2023/12/08 07:16:14;;;;;;;;;9.33;9.00;;;;;8.59;100.00;100698.16;5010732;28;45253;-71
2023/12/08 07:18:39;;;;;;;;;9.33;8.33;;;;;8.81;100.00;100730.63;5008809;28;45270;-71
2023/12/08 07:21:05;;;;;;;;;13.33;10.00;;;;;8.80;100.00;100729.75;5008552;28;45459;-71
2023/12/08 07:23:30;;;;;;;;;16.67;9.33;;;;;8.61;100.00;100712.97;5009956;28;45331;-71
2023/12/08 07:25:56;;;;;;;;;11.33;9.67;;;;;8.70;100.00;100748.69;5007543;28;45658;-71
2023/12/08 07:28:21;;;;;;;;;6.33;4.00;;;;;8.83;100.00;100768.34;4996313;28;45463;-71
2023/12/08 07:30:46;;;;;;;;;12.33;9.67;;;;;8.79;100.00;100780.81;5009175;28;45557;-71
2023/12/08 07:33:12;;;;;;;;;8.33;8.33;;;;;8.82;100.00;100782.44;5009280;28;45272;-71
2023/12/08 07:35:37;;;;;;;;;10.33;8.00;;;;;8.80;100.00;100779.84;5007942;28;45508;-71
2023/12/08 07:38:03;;;;;;;;;6.33;4.00;;;;;8.80;100.00;100785.13;5008242;28;45347;-71
2023/12/08 07:40:29;;;;;;;;;13.00;11.33;;;;;8.82;100.00;100779.81;5008216;28;45491;-71
2023/12/08 07:42:55;;;;;;;;;16.00;10.00;;;;;8.79;100.00;100774.66;5012069;28;45459;-71
2023/12/08 07:45:20;;;;;;;;;18.33;12.00;;;;;8.82;100.00;100772.75;4998654;28;45841;-71
2023/12/08 07:47:45;;;;;;;;;16.00;13.00;;;;;8.81;100.00;100771.03;5016214;28;45347;-71
2023/12/08 07:50:11;;;;;;;;;15.33;13.33;;;;;8.73;100.00;100765.22;5015226;28;45698;-71
2023/12/08 07:52:39;;;;;;;;;14.00;14.00;;;;;8.83;100.00;100785.00;5012558;28;47958;-71
2023/12/08 07:55:05;;;;;;;;;16.33;10.33;;;;;8.84;100.00;100789.38;5010449;28;45374;-70
2023/12/08 07:57:30;;;;;;;;;13.00;11.67;;;;;8.84;100.00;100793.78;5019825;28;45471;-71
2023/12/08 07:59:56;;;;;;;;;15.00;13.00;;;;;8.85;100.00;100796.38;4999367;28;45246;-70
2023/12/08 08:02:21;;;;;;;;;18.33;16.33;;;;;8.86;100.00;100790.19;5014505;28;46329;-72
2023/12/08 08:04:47;;;;;;;;;18.00;9.67;;;;;8.91;100.00;100792.63;5006321;28;45680;-72
2023/12/08 08:07:12;;;;;;;;;22.00;16.00;;;;;8.89;100.00;100795.34;5018517;28;45517;-71
2023/12/08 08:09:37;;;;;;;;;14.00;12.33;;;;;8.89;100.00;100800.63;5001682;28;45474;-71
2023/12/08 08:12:03;;;;;;;;;16.33;14.00;;;;;8.95;100.00;100804.78;5016891;28;45440;-71
2023/12/08 08:14:28;;;;;;;;;17.33;13.67;;;;;8.95;100.00;100811.81;5032181;22;45755;-71
2023/12/08 08:16:54;;;;;;;;;19.67;14.67;;;;;8.92;100.00;100804.91;5023670;28;45657;-72
2023/12/08 08:19:19;;;;;;;;;20.67;14.33;;;;;8.87;100.00;100801.56;5037297;28;45596;-72
2023/12/08 08:21:44;;;;;;;;;23.00;15.00;;;;;8.98;100.00;100824.88;5035324;28;45377;-72
2023/12/08 08:24:10;;;;;;;;;21.33;15.67;;;;;9.00;100.00;100821.25;5033484;28;45359;-72
2023/12/08 08:26:35;;;;;;;;;18.67;16.00;;;;;8.93;100.00;100798.72;5031590;28;45304;-72
2023/12/08 08:29:01;;;;;;;;;12.67;10.33;;;;;8.95;100.00;100803.91;5041709;28;45548;-72
2023/12/08 08:31:26;;;;;;;;;16.00;13.33;;;;;9.07;100.00;100824.50;5039762;28;45836;-72
2023/12/08 08:33:52;;;;;;;;;18.33;14.00;;;;;9.03;100.00;100813.22;5038919;28;45375;-72
2023/12/08 08:36:17;;;;;;;;;13.67;10.67;;;;;9.09;100.00;100822.69;5039541;28;45370;-72
2023/12/08 08:38:43;;;;;;;;;17.33;14.00;;;;;9.12;100.00;100823.41;5030396;28;45241;-72
2023/12/08 08:41:08;;;;;;;;;25.67;15.00;;;;;9.14;100.00;100833.91;5041047;28;45861;-72
2023/12/08 08:43:34;;;;;;;;;18.00;13.67;;;;;9.07;100.00;100822.72;5033296;28;45256;-71
2023/12/08 08:45:59;;;;;;;;;16.33;11.33;;;;;9.15;100.00;100831.22;5034979;28;45398;-72
2023/12/08 08:48:27;;;;;;;;;15.33;11.33;;;;;9.18;100.00;100819.66;5033379;28;45614;-72
2023/12/08 08:50:53;;;;;;;;;14.00;10.00;;;;;9.24;100.00;100822.03;5036578;28;45419;-72
2023/12/08 08:53:18;;;;;;;;;19.33;14.00;;;;;9.32;100.00;100819.97;5024105;28;45301;-72
2023/12/08 08:55:44;;;;;;;;;18.33;15.00;;;;;9.35;100.00;100825.97;5041730;28;45328;-73
2023/12/08 08:58:10;;;;;;;;;13.33;13.33;;;;;9.41;100.00;100824.84;5033580;28;45436;-73
2023/12/08 09:00:35;;;;;;;;;12.67;9.33;;;;;9.45;100.00;100815.88;5037349;28;46153;-72
2023/12/08 09:03:01;;;;;;;;;12.00;8.67;;;;;9.49;100.00;100816.63;5033773;28;45355;-72
2023/12/08 09:05:27;;;;;;;;;15.00;14.00;;;;;9.46;100.00;100820.22;5023008;28;45430;-72
2023/12/08 09:07:52;;;;;;;;;19.00;14.00;;;;;9.50;100.00;100816.53;5041171;28;45260;-72
2023/12/08 09:10:18;;;;;;;;;19.33;15.67;;;;;9.57;100.00;100825.06;5036968;28;45958;-72
2023/12/08 09:12:43;;;;;;;;;15.67;12.33;;;;;9.49;100.00;100811.34;5036301;28;45421;-72
2023/12/08 09:15:11;;;;;;;;;17.00;14.00;;;;;9.56;100.00;100818.03;5040547;28;45209;-73
2023/12/08 09:17:37;;;;;;;;;14.00;10.67;;;;;9.69;100.00;100822.75;5039756;28;45441;-72
2023/12/08 09:20:05;;;;;;;;;14.33;11.00;;;;;9.66;100.00;100817.59;5040959;28;45340;-72
2023/12/08 09:22:30;;;;;;;;;15.67;14.00;;;;;9.76;100.00;100820.69;5040331;28;45323;-73
2023/12/08 09:24:55;;;;;;;;;21.00;15.67;;;;;9.78;100.00;100819.69;5040671;28;45448;-73
2023/12/08 09:27:21;;;;;;;;;27.67;19.33;;;;;9.80;100.00;100817.88;5040901;28;45566;-72
2023/12/08 09:29:49;;;;;;;;;22.00;16.00;;;;;9.83;100.00;100822.16;5041022;28;45332;-73
2023/12/08 09:32:14;;;;;;;;;9.67;7.33;;;;;9.91;100.00;100835.88;5022432;28;45989;-72
2023/12/08 09:34:41;;;;;;;;;16.33;8.00;;;;;9.94;100.00;100833.97;5039215;28;45326;-73
2023/12/08 09:37:06;;;;;;;;;19.33;14.33;;;;;9.99;100.00;100849.59;5023199;28;45543;-72
2023/12/08 09:39:32;;;;;;;;;11.33;10.67;;;;;9.98;100.00;100837.31;5034728;28;46417;-72
2023/12/08 09:42:02;;;;;;;;;10.33;4.00;;;;;9.87;100.00;100816.66;5040952;28;45471;-73
2023/12/08 09:44:28;;;;;;;;;14.00;9.33;;;;;10.02;100.00;100841.53;5040192;28;45252;-73
2023/12/08 09:46:55;;;;;;;;;14.00;11.00;;;;;10.07;100.00;100839.56;5033674;28;45443;-74
2023/12/08 09:49:29;;;;;;;;;19.67;11.00;;;;;10.13;100.00;100854.28;5040752;28;45546;-72
2023/12/08 09:51:56;;;;;;;;;16.67;10.67;;;;;10.17;100.00;100853.25;5039741;28;45260;-73
2023/12/08 09:54:22;;;;;;;;;15.33;10.67;;;;;10.19;100.00;100852.25;5040197;28;45403;-73
2023/12/08 09:56:54;;;;;;;;;11.33;10.00;;;;;10.13;100.00;100841.06;5032267;28;45529;-73
2023/12/08 09:59:26;;;;;;;;;13.33;10.00;;;;;10.21;100.00;100860.13;5037222;28;47108;-72
2023/12/08 10:01:52;;;;;;;;;9.33;9.00;;;;;10.19;100.00;100860.19;5039788;28;45451;-73
2023/12/08 10:04:17;;;;;;;;;11.67;7.33;;;;;10.27;100.00;100865.16;5022292;28;45264;-73
2023/12/08 10:06:43;;;;;;;;;11.00;9.00;;;;;10.30;100.00;100862.38;5040315;28;45400;-73
2023/12/08 10:09:11;;;;;;;;;18.00;8.33;;;;;10.31;100.00;100861.41;5040273;28;45386;-73
2023/12/08 10:11:40;;;;;;;;;13.67;8.67;;;;;10.27;100.00;100854.56;5022747;28;45261;-73
2023/12/08 10:14:07;;;;;;;;;10.33;9.67;;;;;10.39;100.00;100864.59;5020967;28;45554;-73
2023/12/08 10:16:33;;;;;;;;;11.33;7.67;;;;;10.48;100.00;100872.09;5038424;28;45395;-73
2023/12/08 10:19:09;;;;;;;;;6.67;4.67;;;;;10.51;100.00;100866.66;5039726;28;46011;-73
2023/12/08 10:21:35;;;;;;;;;15.00;6.33;;;;;10.54;100.00;100857.72;5033458;28;45247;-73
2023/12/08 10:24:01;;;;;;;;;11.00;9.00;;;;;10.57;100.00;100861.06;5022616;28;45299;-73
2023/12/08 10:26:27;;;;;;;;;16.00;10.00;;;;;10.54;100.00;100852.44;5040153;28;45421;-73
2023/12/08 10:28:57;;;;;;;;;10.33;6.67;;;;;10.54;100.00;100855.94;5036407;28;46782;-73
2023/12/08 10:31:23;;;;;;;;;10.67;7.00;;;;;10.52;100.00;100849.00;5034326;28;45479;-73
2023/12/08 10:33:50;;;;;;;;;8.00;6.33;;;;;10.48;100.00;100850.94;5039458;28;45249;-73
2023/12/08 10:36:16;;;;;;;;;11.00;6.33;;;;;10.45;100.00;100853.72;5039711;28;45203;-73
2023/12/08 10:38:42;;;;;;;;;9.00;5.00;;;;;10.39;100.00;100846.06;5039786;28;45261;-73
2023/12/08 10:41:10;;;;;;;;;12.33;8.00;;;;;10.45;100.00;100862.50;5040058;28;45345;-73
2023/12/08 10:43:40;;;;;;;;;10.00;6.33;;;;;10.36;100.00;100827.72;5040282;28;45281;-74
2023/12/08 10:46:07;;;;;;;;;9.67;7.33;;;;;10.55;100.00;100843.56;5033304;28;45770;-74
2023/12/08 10:48:35;;;;;;;;;9.33;8.67;;;;;10.64;100.00;100859.88;5028701;28;46171;-73
2023/12/08 10:51:00;;;;;;;;;9.00;3.33;;;;;10.66;100.00;100859.81;5037742;28;45343;-73
2023/12/08 10:53:27;;;;;;;;;11.33;8.00;;;;;10.64;100.00;100857.22;5035212;28;45257;-72
2023/12/08 10:56:05;;;;;;;;;9.33;6.33;;;;;10.63;100.00;100854.66;5039712;28;45434;-73
2023/12/08 10:58:34;;;;;;;;;7.67;7.00;;;;;10.65;100.00;100858.09;5021878;28;47444;-73
2023/12/08 11:01:03;;;;;;;;;8.00;3.33;;;;;10.62;100.00;100853.81;5038992;28;45305;-73
2023/12/08 11:03:34;;;;;;;;;7.33;4.67;;;;;10.65;100.00;100855.44;5032278;28;45320;-73
2023/12/08 11:06:07;;;;;;;;;7.00;4.00;;;;;10.70;100.00;100853.47;5018346;28;45515;-74
2023/12/08 11:08:33;;;;;;;;;5.67;3.67;;;;;10.69;100.00;100855.25;5038348;28;45983;-73
2023/12/08 11:11:03;;;;;;;;;10.67;5.67;;;;;10.73;100.00;100855.97;5021569;28;45285;-73